Decoded Metar for ULPB ( in ) (IATA:) | Meteo·Mobile Aviation Weather
aviador You're here:

ULPB Decoded Metar

in
Report Time2018-12-16 11:00:00
UTC Time2018-12-16 11:22:31
Flight Rules vfr VFR
Wind230° at 8 kt
W.Decomp.*RWY 19: 6.1 kt HW 5.1 kt RCW
W.Rank230° ranks 2
Current wind is below 230° avg. (8.0)
Visibility9999 m
Phenomena:N/A
Clouds:N/A
CeilingNone
Temp-7°C
Dew Point-7°C (100% RH)
AAT-12.7°C
QNH1037 hPa
Raw Report
METAR ULPB 161100Z AUTO 23004MPS 9999 // ///005/// M07/M07 Q1037 RMK
QBB150 QFE774/1032=

Extra information for ULPB:More info

Social comments